sensor_id;sensor_type;location;lat;lon;timestamp;pressure;altitude;pressure_sealevel;temperature;humidity
55550;BME280;41397;49.972;18.944;2024-03-08T00:01:39;102521.52;;;5.29;69.11
55550;BME280;41397;49.972;18.944;2024-03-08T00:04:40;102516.16;;;5.27;68.90
55550;BME280;41397;49.972;18.944;2024-03-08T00:07:42;102514.43;;;5.25;69.16
55550;BME280;41397;49.972;18.944;2024-03-08T00:10:44;102516.91;;;5.32;68.95
55550;BME280;41397;49.972;18.944;2024-03-08T00:13:45;102521.29;;;5.37;68.99
55550;BME280;41397;49.972;18.944;2024-03-08T00:16:47;102518.57;;;5.37;69.28
55550;BME280;41397;49.972;18.944;2024-03-08T00:19:50;102520.30;;;5.11;69.37
55550;BME280;41397;49.972;18.944;2024-03-08T00:22:52;102508.92;;;4.98;69.63
55550;BME280;41397;49.972;18.944;2024-03-08T00:25:54;102504.23;;;5.05;69.76
55550;BME280;41397;49.972;18.944;2024-03-08T00:28:56;102507.92;;;5.02;69.88
55550;BME280;41397;49.972;18.944;2024-03-08T00:31:58;102496.23;;;5.00;69.74
55550;BME280;41397;49.972;18.944;2024-03-08T00:34:59;102493.21;;;5.09;69.91
55550;BME280;41397;49.972;18.944;2024-03-08T00:38:00;102498.63;;;5.09;69.60
55550;BME280;41397;49.972;18.944;2024-03-08T00:41:01;102496.27;;;4.99;69.92
55550;BME280;41397;49.972;18.944;2024-03-08T00:44:07;102497.53;;;4.87;70.08
55550;BME280;41397;49.972;18.944;2024-03-08T00:47:08;102487.15;;;5.01;69.95
55550;BME280;41397;49.972;18.944;2024-03-08T00:50:10;102486.90;;;5.09;69.70
55550;BME280;41397;49.972;18.944;2024-03-08T00:53:12;102487.68;;;5.12;69.56
55550;BME280;41397;49.972;18.944;2024-03-08T00:56:15;102490.39;;;5.12;69.52
55550;BME280;41397;49.972;18.944;2024-03-08T00:59:16;102474.29;;;5.08;69.46
55550;BME280;41397;49.972;18.944;2024-03-08T01:02:17;102479.54;;;5.12;69.71
55550;BME280;41397;49.972;18.944;2024-03-08T01:05:20;102480.40;;;5.15;69.21
55550;BME280;41397;49.972;18.944;2024-03-08T01:08:23;102483.45;;;5.04;69.59
55550;BME280;41397;49.972;18.944;2024-03-08T01:11:24;102481.14;;;4.92;69.43
55550;BME280;41397;49.972;18.944;2024-03-08T01:14:26;102467.51;;;4.93;69.76
55550;BME280;41397;49.972;18.944;2024-03-08T01:17:30;102470.19;;;4.95;70.02
55550;BME280;41397;49.972;18.944;2024-03-08T01:20:32;102466.84;;;4.86;69.87
55550;BME280;41397;49.972;18.944;2024-03-08T01:23:33;102463.82;;;4.96;70.14
55550;BME280;41397;49.972;18.944;2024-03-08T01:26:35;102457.38;;;5.00;69.80
55550;BME280;41397;49.972;18.944;2024-03-08T01:29:36;102452.64;;;5.06;69.61
55550;BME280;41397;49.972;18.944;2024-03-08T01:32:40;102450.27;;;4.96;69.44
55550;BME280;41397;49.972;18.944;2024-03-08T01:35:43;102453.48;;;4.80;69.93
55550;BME280;41397;49.972;18.944;2024-03-08T01:38:44;102446.13;;;4.84;69.82
55550;BME280;41397;49.972;18.944;2024-03-08T01:41:45;102447.34;;;4.74;70.04
55550;BME280;41397;49.972;18.944;2024-03-08T01:44:48;102456.09;;;4.83;69.84
55550;BME280;41397;49.972;18.944;2024-03-08T01:47:49;102443.01;;;4.68;70.00
55550;BME280;41397;49.972;18.944;2024-03-08T01:50:51;102444.83;;;4.67;70.15
55550;BME280;41397;49.972;18.944;2024-03-08T01:53:56;102443.13;;;4.63;69.95
55550;BME280;41397;49.972;18.944;2024-03-08T01:56:58;102440.69;;;4.56;70.43
55550;BME280;41397;49.972;18.944;2024-03-08T02:00:00;102438.00;;;4.54;70.77
55550;BME280;41397;49.972;18.944;2024-03-08T02:03:04;102437.68;;;4.65;70.30
55550;BME280;41397;49.972;18.944;2024-03-08T02:06:06;102441.00;;;4.45;70.15
55550;BME280;41397;49.972;18.944;2024-03-08T02:09:10;102437.32;;;4.48;70.74
55550;BME280;41397;49.972;18.944;2024-03-08T02:12:11;102435.20;;;4.57;70.49
55550;BME280;41397;49.972;18.944;2024-03-08T02:15:12;102439.11;;;4.47;70.59
55550;BME280;41397;49.972;18.944;2024-03-08T02:18:14;102429.97;;;4.51;70.66
55550;BME280;41397;49.972;18.944;2024-03-08T02:21:16;102433.03;;;4.39;70.74
55550;BME280;41397;49.972;18.944;2024-03-08T02:24:21;102429.19;;;4.48;70.95
55550;BME280;41397;49.972;18.944;2024-03-08T02:27:24;102420.14;;;4.47;70.83
55550;BME280;41397;49.972;18.944;2024-03-08T02:30:26;102426.52;;;4.46;70.91
55550;BME280;41397;49.972;18.944;2024-03-08T02:33:30;102424.68;;;4.47;71.07
55550;BME280;41397;49.972;18.944;2024-03-08T02:36:31;102421.97;;;4.47;70.79
55550;BME280;41397;49.972;18.944;2024-03-08T02:39:35;102421.88;;;4.50;70.65
55550;BME280;41397;49.972;18.944;2024-03-08T02:42:36;102431.36;;;4.35;71.06
55550;BME280;41397;49.972;18.944;2024-03-08T02:45:38;102428.69;;;4.33;71.19
55550;BME280;41397;49.972;18.944;2024-03-08T02:48:39;102422.39;;;4.33;71.30
55550;BME280;41397;49.972;18.944;2024-03-08T02:51:41;102431.90;;;4.48;71.00
55550;BME280;41397;49.972;18.944;2024-03-08T02:54:42;102431.84;;;4.49;71.27
55550;BME280;41397;49.972;18.944;2024-03-08T02:57:44;102419.32;;;4.45;70.96
55550;BME280;41397;49.972;18.944;2024-03-08T03:00:48;102421.75;;;4.54;70.65
55550;BME280;41397;49.972;18.944;2024-03-08T03:03:49;102427.26;;;4.51;70.73
55550;BME280;41397;49.972;18.944;2024-03-08T03:06:50;102423.61;;;4.52;70.74
55550;BME280;41397;49.972;18.944;2024-03-08T03:09:51;102424.74;;;4.45;70.66
55550;BME280;41397;49.972;18.944;2024-03-08T03:12:52;102427.38;;;4.47;70.47
55550;BME280;41397;49.972;18.944;2024-03-08T03:15:53;102426.22;;;4.55;70.37
55550;BME280;41397;49.972;18.944;2024-03-08T03:18:55;102419.01;;;4.56;70.64
55550;BME280;41397;49.972;18.944;2024-03-08T03:21:59;102407.57;;;4.44;70.56
55550;BME280;41397;49.972;18.944;2024-03-08T03:25:00;102413.91;;;4.45;70.53
55550;BME280;41397;49.972;18.944;2024-03-08T03:28:03;102408.62;;;4.40;70.62
55550;BME280;41397;49.972;18.944;2024-03-08T03:31:08;102410.22;;;4.48;70.49
55550;BME280;41397;49.972;18.944;2024-03-08T03:34:15;102412.50;;;4.32;70.76
55550;BME280;41397;49.972;18.944;2024-03-08T03:37:16;102412.17;;;4.42;70.71
55550;BME280;41397;49.972;18.944;2024-03-08T03:40:20;102408.72;;;4.37;70.64
55550;BME280;41397;49.972;18.944;2024-03-08T03:43:21;102421.05;;;4.48;70.08
55550;BME280;41397;49.972;18.944;2024-03-08T03:46:22;102414.98;;;4.39;70.05
55550;BME280;41397;49.972;18.944;2024-03-08T03:49:23;102410.57;;;4.35;70.41
55550;BME280;41397;49.972;18.944;2024-03-08T03:52:25;102411.46;;;4.36;70.47
55550;BME280;41397;49.972;18.944;2024-03-08T03:55:26;102415.11;;;4.35;70.28
55550;BME280;41397;49.972;18.944;2024-03-08T03:58:27;102407.10;;;4.30;70.54
55550;BME280;41397;49.972;18.944;2024-03-08T04:01:29;102413.58;;;4.26;70.54
55550;BME280;41397;49.972;18.944;2024-03-08T04:04:30;102405.60;;;4.20;70.63
55550;BME280;41397;49.972;18.944;2024-03-08T04:07:31;102415.30;;;4.29;70.56
55550;BME280;41397;49.972;18.944;2024-03-08T04:10:35;102401.70;;;4.30;70.27
55550;BME280;41397;49.972;18.944;2024-03-08T04:13:37;102409.59;;;4.38;70.13
55550;BME280;41397;49.972;18.944;2024-03-08T04:16:38;102401.28;;;4.44;70.20
55550;BME280;41397;49.972;18.944;2024-03-08T04:19:39;102420.14;;;4.47;69.73
55550;BME280;41397;49.972;18.944;2024-03-08T04:22:42;102417.40;;;4.49;69.68
55550;BME280;41397;49.972;18.944;2024-03-08T04:25:45;102407.41;;;4.51;69.80
55550;BME280;41397;49.972;18.944;2024-03-08T04:28:47;102403.95;;;4.45;69.42
55550;BME280;41397;49.972;18.944;2024-03-08T04:31:48;102407.41;;;4.51;69.48
55550;BME280;41397;49.972;18.944;2024-03-08T04:34:50;102411.23;;;4.43;69.49
55550;BME280;41397;49.972;18.944;2024-03-08T04:37:51;102409.14;;;4.53;69.66
55550;BME280;41397;49.972;18.944;2024-03-08T04:40:52;102408.34;;;4.50;69.20
55550;BME280;41397;49.972;18.944;2024-03-08T04:43:54;102408.09;;;4.57;68.92
55550;BME280;41397;49.972;18.944;2024-03-08T04:46:59;102400.91;;;4.56;68.84
55550;BME280;41397;49.972;18.944;2024-03-08T04:50:01;102401.02;;;4.53;68.96
55550;BME280;41397;49.972;18.944;2024-03-08T04:53:02;102400.39;;;4.43;69.32
55550;BME280;41397;49.972;18.944;2024-03-08T04:56:04;102401.77;;;4.29;69.18
55550;BME280;41397;49.972;18.944;2024-03-08T04:59:08;102405.45;;;4.26;69.47
55550;BME280;41397;49.972;18.944;2024-03-08T05:02:09;102397.25;;;4.28;69.52
55550;BME280;41397;49.972;18.944;2024-03-08T05:05:10;102400.52;;;4.39;69.14
55550;BME280;41397;49.972;18.944;2024-03-08T05:08:14;102417.69;;;4.39;69.19
55550;BME280;41397;49.972;18.944;2024-03-08T05:11:19;102398.23;;;4.25;69.30
55550;BME280;41397;49.972;18.944;2024-03-08T05:14:20;102396.66;;;4.18;69.65
55550;BME280;41397;49.972;18.944;2024-03-08T05:17:21;102410.14;;;4.19;69.88
55550;BME280;41397;49.972;18.944;2024-03-08T05:20:24;102420.20;;;4.14;69.74
55550;BME280;41397;49.972;18.944;2024-03-08T05:23:26;102404.81;;;4.16;69.82
55550;BME280;41397;49.972;18.944;2024-03-08T05:26:27;102413.41;;;4.31;69.71
55550;BME280;41397;49.972;18.944;2024-03-08T05:29:31;102411.67;;;4.28;69.60
55550;BME280;41397;49.972;18.944;2024-03-08T05:32:32;102413.66;;;4.23;69.53
55550;BME280;41397;49.972;18.944;2024-03-08T05:35:33;102416.21;;;4.28;69.60
55550;BME280;41397;49.972;18.944;2024-03-08T05:38:34;102408.72;;;4.37;69.52
55550;BME280;41397;49.972;18.944;2024-03-08T05:41:35;102419.58;;;4.36;69.39
55550;BME280;41397;49.972;18.944;2024-03-08T05:44:36;102417.95;;;4.30;69.65
55550;BME280;41397;49.972;18.944;2024-03-08T05:47:41;102428.39;;;4.13;69.79
55550;BME280;41397;49.972;18.944;2024-03-08T05:50:43;102419.23;;;4.17;69.92
55550;BME280;41397;49.972;18.944;2024-03-08T05:53:45;102423.87;;;4.13;69.79
55550;BME280;41397;49.972;18.944;2024-03-08T05:56:46;102424.17;;;4.03;69.97
55550;BME280;41397;49.972;18.944;2024-03-08T05:59:50;102417.90;;;4.00;70.31
55550;BME280;41397;49.972;18.944;2024-03-08T06:02:51;102430.45;;;4.03;70.09
55550;BME280;41397;49.972;18.944;2024-03-08T06:05:52;102428.34;;;4.14;70.16
55550;BME280;41397;49.972;18.944;2024-03-08T06:08:54;102429.25;;;4.15;70.38
55550;BME280;41397;49.972;18.944;2024-03-08T06:11:58;102438.10;;;4.20;69.82
55550;BME280;41397;49.972;18.944;2024-03-08T06:14:59;102429.95;;;4.21;69.93
55550;BME280;41397;49.972;18.944;2024-03-08T06:18:01;102428.97;;;4.24;69.86
55550;BME280;41397;49.972;18.944;2024-03-08T06:21:07;102433.09;;;4.37;69.77
55550;BME280;41397;49.972;18.944;2024-03-08T06:24:12;102427.45;;;4.14;69.79
55550;BME280;41397;49.972;18.944;2024-03-08T06:27:13;102421.05;;;4.16;69.82
55550;BME280;41397;49.972;18.944;2024-03-08T06:30:15;102426.91;;;4.32;69.59
55550;BME280;41397;49.972;18.944;2024-03-08T06:33:17;102422.79;;;4.50;69.39
55550;BME280;41397;49.972;18.944;2024-03-08T06:36:18;102423.80;;;4.46;69.19
55550;BME280;41397;49.972;18.944;2024-03-08T06:39:22;102435.09;;;4.31;69.04
55550;BME280;41397;49.972;18.944;2024-03-08T06:42:26;102423.39;;;4.60;68.77
55550;BME280;41397;49.972;18.944;2024-03-08T06:45:27;102428.66;;;4.64;68.52
55550;BME280;41397;49.972;18.944;2024-03-08T06:48:29;102425.41;;;4.53;68.45
55550;BME280;41397;49.972;18.944;2024-03-08T06:51:30;102433.27;;;4.61;68.34
55550;BME280;41397;49.972;18.944;2024-03-08T06:54:31;102429.23;;;4.46;68.52
55550;BME280;41397;49.972;18.944;2024-03-08T06:57:33;102422.50;;;4.59;68.35
55550;BME280;41397;49.972;18.944;2024-03-08T07:00:34;102430.82;;;4.53;68.23
55550;BME280;41397;49.972;18.944;2024-03-08T07:03:36;102422.44;;;4.61;68.49
55550;BME280;41397;49.972;18.944;2024-03-08T07:06:40;102418.41;;;4.74;68.60
55550;BME280;41397;49.972;18.944;2024-03-08T07:09:45;102411.26;;;4.72;68.27
55550;BME280;41397;49.972;18.944;2024-03-08T07:12:46;102416.77;;;4.68;67.98
55550;BME280;41397;49.972;18.944;2024-03-08T07:15:47;102405.26;;;4.90;68.09
55550;BME280;41397;49.972;18.944;2024-03-08T07:18:48;102421.83;;;5.09;67.50
55550;BME280;41397;49.972;18.944;2024-03-08T07:21:53;102410.20;;;5.05;67.39
55550;BME280;41397;49.972;18.944;2024-03-08T07:24:56;102417.48;;;5.03;67.19
55550;BME280;41397;49.972;18.944;2024-03-08T07:28:08;102413.28;;;4.93;67.17
55550;BME280;41397;49.972;18.944;2024-03-08T07:31:09;102411.81;;;5.11;66.95
55550;BME280;41397;49.972;18.944;2024-03-08T07:34:24;102415.84;;;4.99;66.78
55550;BME280;41397;49.972;18.944;2024-03-08T07:37:26;102411.93;;;5.08;67.19
55550;BME280;41397;49.972;18.944;2024-03-08T07:40:27;102408.61;;;4.98;66.93
55550;BME280;41397;49.972;18.944;2024-03-08T07:43:29;102409.50;;;4.99;67.20
55550;BME280;41397;49.972;18.944;2024-03-08T07:46:30;102411.76;;;5.12;67.14
55550;BME280;41397;49.972;18.944;2024-03-08T07:49:31;102424.31;;;5.15;66.67
55550;BME280;41397;49.972;18.944;2024-03-08T07:52:34;102408.38;;;5.32;66.48
55550;BME280;41397;49.972;18.944;2024-03-08T07:55:36;102420.96;;;5.35;66.26
55550;BME280;41397;49.972;18.944;2024-03-08T07:58:40;102412.20;;;5.27;65.91
55550;BME280;41397;49.972;18.944;2024-03-08T08:01:41;102422.84;;;5.33;66.12
55550;BME280;41397;49.972;18.944;2024-03-08T08:04:42;102413.07;;;5.27;66.02
55550;BME280;41397;49.972;18.944;2024-03-08T08:07:45;102413.82;;;5.32;66.52
55550;BME280;41397;49.972;18.944;2024-03-08T08:10:47;102426.50;;;5.32;66.20
55550;BME280;41397;49.972;18.944;2024-03-08T08:13:48;102413.44;;;5.17;66.31
55550;BME280;41397;49.972;18.944;2024-03-08T08:16:49;102424.77;;;5.01;66.78
55550;BME280;41397;49.972;18.944;2024-03-08T08:19:53;102413.76;;;5.07;66.41
55550;BME280;41397;49.972;18.944;2024-03-08T08:22:54;102433.52;;;5.11;66.38
55550;BME280;41397;49.972;18.944;2024-03-08T08:25:56;102432.13;;;4.98;66.66
55550;BME280;41397;49.972;18.944;2024-03-08T08:28:57;102425.13;;;4.90;66.84
55550;BME280;41397;49.972;18.944;2024-03-08T08:31:58;102428.67;;;4.93;66.96
55550;BME280;41397;49.972;18.944;2024-03-08T08:35:00;102428.58;;;4.96;66.63
55550;BME280;41397;49.972;18.944;2024-03-08T08:38:01;102425.76;;;4.99;67.05
55550;BME280;41397;49.972;18.944;2024-03-08T08:41:04;102432.34;;;4.92;67.53
55550;BME280;41397;49.972;18.944;2024-03-08T08:44:07;102429.21;;;5.04;67.71
55550;BME280;41397;49.972;18.944;2024-03-08T08:47:12;102438.06;;;5.10;67.28
55550;BME280;41397;49.972;18.944;2024-03-08T08:50:14;102438.97;;;5.09;67.15
55550;BME280;41397;49.972;18.944;2024-03-08T08:53:16;102432.27;;;5.21;66.60
55550;BME280;41397;49.972;18.944;2024-03-08T08:56:19;102430.27;;;5.26;66.69
55550;BME280;41397;49.972;18.944;2024-03-08T08:59:21;102441.41;;;5.19;66.93
55550;BME280;41397;49.972;18.944;2024-03-08T09:02:26;102431.47;;;5.18;66.76
55550;BME280;41397;49.972;18.944;2024-03-08T09:05:27;102421.33;;;5.24;66.70
55550;BME280;41397;49.972;18.944;2024-03-08T09:08:28;102427.77;;;5.20;67.21
55550;BME280;41397;49.972;18.944;2024-03-08T09:11:29;102416.64;;;5.29;67.00
55550;BME280;41397;49.972;18.944;2024-03-08T09:14:33;102431.19;;;5.27;66.61
55550;BME280;41397;49.972;18.944;2024-03-08T09:17:35;102439.95;;;5.35;66.68
55550;BME280;41397;49.972;18.944;2024-03-08T09:20:36;102428.76;;;5.18;66.55
55550;BME280;41397;49.972;18.944;2024-03-08T09:23:37;102415.84;;;5.26;66.35
55550;BME280;41397;49.972;18.944;2024-03-08T09:26:39;102409.88;;;5.15;66.51
55550;BME280;41397;49.972;18.944;2024-03-08T09:29:43;102416.67;;;5.28;66.60
55550;BME280;41397;49.972;18.944;2024-03-08T09:32:45;102421.89;;;5.34;66.70
55550;BME280;41397;49.972;18.944;2024-03-08T09:35:47;102407.21;;;5.40;66.38
55550;BME280;41397;49.972;18.944;2024-03-08T09:38:49;102410.56;;;5.48;66.29
55550;BME280;41397;49.972;18.944;2024-03-08T09:41:51;102424.20;;;5.46;66.28
55550;BME280;41397;49.972;18.944;2024-03-08T09:44:52;102411.73;;;5.41;66.33
55550;BME280;41397;49.972;18.944;2024-03-08T09:47:54;102409.67;;;5.47;66.42
55550;BME280;41397;49.972;18.944;2024-03-08T09:50:55;102409.30;;;5.58;65.79
55550;BME280;41397;49.972;18.944;2024-03-08T09:53:57;102407.47;;;5.59;65.85
55550;BME280;41397;49.972;18.944;2024-03-08T09:56:59;102403.49;;;5.69;66.10
55550;BME280;41397;49.972;18.944;2024-03-08T10:00:00;102414.36;;;5.69;65.62
55550;BME280;41397;49.972;18.944;2024-03-08T10:03:02;102426.98;;;5.70;65.65
55550;BME280;41397;49.972;18.944;2024-03-08T10:06:04;102406.25;;;5.67;65.94
55550;BME280;41397;49.972;18.944;2024-03-08T10:09:06;102416.69;;;5.79;65.93
55550;BME280;41397;49.972;18.944;2024-03-08T10:12:11;102412.63;;;5.66;65.57
55550;BME280;41397;49.972;18.944;2024-03-08T10:15:12;102416.93;;;5.47;65.84
55550;BME280;41397;49.972;18.944;2024-03-08T10:18:17;102411.40;;;5.50;65.94
55550;BME280;41397;49.972;18.944;2024-03-08T10:21:18;102412.48;;;5.71;66.05
55550;BME280;41397;49.972;18.944;2024-03-08T10:24:20;102409.66;;;5.74;65.83
55550;BME280;41397;49.972;18.944;2024-03-08T10:27:21;102403.00;;;5.83;65.67
55550;BME280;41397;49.972;18.944;2024-03-08T10:30:22;102412.02;;;5.83;65.26
55550;BME280;41397;49.972;18.944;2024-03-08T10:33:24;102399.29;;;5.85;65.29
55550;BME280;41397;49.972;18.944;2024-03-08T10:36:28;102403.77;;;5.86;65.03
55550;BME280;41397;49.972;18.944;2024-03-08T10:39:34;102403.95;;;5.82;65.33
55550;BME280;41397;49.972;18.944;2024-03-08T10:45:54;102418.34;;;5.84;65.58
55550;BME280;41397;49.972;18.944;2024-03-08T10:49:04;102404.84;;;5.82;65.50
55550;BME280;41397;49.972;18.944;2024-03-08T10:52:11;102401.77;;;5.91;65.33
55550;BME280;41397;49.972;18.944;2024-03-08T10:55:14;102406.20;;;5.95;65.39
55550;BME280;41397;49.972;18.944;2024-03-08T10:58:17;102397.57;;;5.83;65.68
55550;BME280;41397;49.972;18.944;2024-03-08T11:01:18;102392.75;;;5.91;65.65
55550;BME280;41397;49.972;18.944;2024-03-08T11:04:19;102393.15;;;6.05;65.51
55550;BME280;41397;49.972;18.944;2024-03-08T11:07:24;102392.03;;;6.11;65.24
55550;BME280;41397;49.972;18.944;2024-03-08T11:10:29;102386.55;;;6.12;64.97
55550;BME280;41397;49.972;18.944;2024-03-08T11:13:35;102381.41;;;6.05;65.35
55550;BME280;41397;49.972;18.944;2024-03-08T11:16:39;102382.55;;;6.22;65.10
55550;BME280;41397;49.972;18.944;2024-03-08T11:19:46;102368.02;;;6.23;64.96
55550;BME280;41397;49.972;18.944;2024-03-08T11:22:55;102388.16;;;6.41;64.40
55550;BME280;41397;49.972;18.944;2024-03-08T11:26:02;102377.68;;;6.54;64.13
55550;BME280;41397;49.972;18.944;2024-03-08T11:32:21;102369.41;;;6.57;64.55
55550;BME280;41397;49.972;18.944;2024-03-08T11:35:23;102362.61;;;6.69;64.11
55550;BME280;41397;49.972;18.944;2024-03-08T11:38:24;102366.08;;;6.73;64.03
55550;BME280;41397;49.972;18.944;2024-03-08T11:41:26;102348.01;;;6.94;64.00
55550;BME280;41397;49.972;18.944;2024-03-08T11:44:27;102348.45;;;6.83;63.39
55550;BME280;41397;49.972;18.944;2024-03-08T11:47:31;102341.60;;;6.73;64.29
55550;BME280;41397;49.972;18.944;2024-03-08T11:50:32;102337.93;;;6.74;63.83
55550;BME280;41397;49.972;18.944;2024-03-08T11:53:34;102342.27;;;6.79;63.80
55550;BME280;41397;49.972;18.944;2024-03-08T11:56:37;102334.77;;;6.84;63.90
55550;BME280;41397;49.972;18.944;2024-03-08T11:59:39;102333.05;;;6.82;63.58
55550;BME280;41397;49.972;18.944;2024-03-08T12:02:40;102329.59;;;6.78;63.93
55550;BME280;41397;49.972;18.944;2024-03-08T12:06:01;102339.06;;;6.68;64.14
55550;BME280;41397;49.972;18.944;2024-03-08T12:09:00;102328.84;;;6.75;63.92
55550;BME280;41397;49.972;18.944;2024-03-08T12:12:02;102327.75;;;6.79;64.27
55550;BME280;41397;49.972;18.944;2024-03-08T12:15:08;102326.94;;;6.99;64.12
55550;BME280;41397;49.972;18.944;2024-03-08T12:18:10;102323.58;;;6.92;64.28
55550;BME280;41397;49.972;18.944;2024-03-08T12:21:14;102318.92;;;6.96;64.29
55550;BME280;41397;49.972;18.944;2024-03-08T12:24:21;102313.38;;;6.97;64.11
55550;BME280;41397;49.972;18.944;2024-03-08T12:27:22;102306.21;;;7.17;64.08
55550;BME280;41397;49.972;18.944;2024-03-08T12:30:26;102319.90;;;7.15;63.98
55550;BME280;41397;49.972;18.944;2024-03-08T12:33:30;102306.43;;;7.12;63.90
55550;BME280;41397;49.972;18.944;2024-03-08T12:36:32;102305.51;;;7.11;63.87
55550;BME280;41397;49.972;18.944;2024-03-08T12:39:34;102296.09;;;7.20;63.53
55550;BME280;41397;49.972;18.944;2024-03-08T12:45:15;102295.66;;;7.09;63.53
55550;BME280;41397;49.972;18.944;2024-03-08T12:48:16;102288.72;;;7.02;63.89
55550;BME280;41397;49.972;18.944;2024-03-08T12:51:19;102289.46;;;7.05;64.18
55550;BME280;41397;49.972;18.944;2024-03-08T12:54:23;102301.87;;;7.13;64.04
55550;BME280;41397;49.972;18.944;2024-03-08T12:57:25;102284.67;;;7.12;63.85
55550;BME280;41397;49.972;18.944;2024-03-08T13:00:29;102281.86;;;7.14;64.20
55550;BME280;41397;49.972;18.944;2024-03-08T13:03:30;102280.48;;;7.03;64.02
55550;BME280;41397;49.972;18.944;2024-03-08T13:06:32;102273.78;;;7.12;64.19
55550;BME280;41397;49.972;18.944;2024-03-08T13:09:34;102273.55;;;6.96;64.07
55550;BME280;41397;49.972;18.944;2024-03-08T13:12:38;102267.47;;;6.89;64.80
55550;BME280;41397;49.972;18.944;2024-03-08T13:15:42;102275.39;;;6.96;64.78
55550;BME280;41397;49.972;18.944;2024-03-08T13:18:44;102260.34;;;6.87;64.78
55550;BME280;41397;49.972;18.944;2024-03-08T13:21:45;102265.71;;;6.88;65.10
55550;BME280;41397;49.972;18.944;2024-03-08T13:24:50;102263.13;;;6.85;65.40
55550;BME280;41397;49.972;18.944;2024-03-08T13:27:53;102252.86;;;6.92;65.17
55550;BME280;41397;49.972;18.944;2024-03-08T13:30:59;102263.55;;;6.97;65.16
55550;BME280;41397;49.972;18.944;2024-03-08T13:34:07;102260.27;;;6.88;65.30
55550;BME280;41397;49.972;18.944;2024-03-08T13:37:11;102250.84;;;6.97;65.03
55550;BME280;41397;49.972;18.944;2024-03-08T13:40:13;102260.51;;;7.04;65.19
55550;BME280;41397;49.972;18.944;2024-03-08T13:43:14;102245.75;;;7.10;64.53
55550;BME280;41397;49.972;18.944;2024-03-08T13:46:16;102248.05;;;7.19;64.69
55550;BME280;41397;49.972;18.944;2024-03-08T13:49:17;102248.79;;;7.23;64.78
55550;BME280;41397;49.972;18.944;2024-03-08T13:52:19;102243.58;;;7.18;64.48
55550;BME280;41397;49.972;18.944;2024-03-08T13:55:21;102248.76;;;7.04;64.36
55550;BME280;41397;49.972;18.944;2024-03-08T13:58:27;102245.26;;;7.00;64.72
55550;BME280;41397;49.972;18.944;2024-03-08T14:01:31;102237.87;;;7.04;64.40
55550;BME280;41397;49.972;18.944;2024-03-08T14:04:33;102241.33;;;7.07;64.91
55550;BME280;41397;49.972;18.944;2024-03-08T14:07:35;102243.48;;;7.20;64.68
55550;BME280;41397;49.972;18.944;2024-03-08T14:10:37;102224.92;;;7.09;64.87
55550;BME280;41397;49.972;18.944;2024-03-08T14:13:44;102236.63;;;7.11;64.83
55550;BME280;41397;49.972;18.944;2024-03-08T14:16:47;102234.64;;;7.15;64.43
55550;BME280;41397;49.972;18.944;2024-03-08T14:19:49;102239.67;;;7.03;63.89
55550;BME280;41397;49.972;18.944;2024-03-08T14:22:52;102229.90;;;6.99;64.09
55550;BME280;41397;49.972;18.944;2024-03-08T14:26:00;102231.46;;;7.05;63.33
55550;BME280;41397;49.972;18.944;2024-03-08T14:29:02;102223.77;;;6.94;62.36
55550;BME280;41397;49.972;18.944;2024-03-08T14:32:03;102228.71;;;6.84;61.88
55550;BME280;41397;49.972;18.944;2024-03-08T14:35:07;102219.62;;;6.85;62.86
55550;BME280;41397;49.972;18.944;2024-03-08T14:38:11;102217.65;;;6.89;62.75
55550;BME280;41397;49.972;18.944;2024-03-08T14:41:13;102213.04;;;6.91;62.67
55550;BME280;41397;49.972;18.944;2024-03-08T14:44:17;102210.91;;;6.98;62.08
55550;BME280;41397;49.972;18.944;2024-03-08T14:47:20;102206.85;;;6.87;61.70
55550;BME280;41397;49.972;18.944;2024-03-08T14:50:24;102212.76;;;6.97;61.55
55550;BME280;41397;49.972;18.944;2024-03-08T14:53:26;102207.23;;;6.78;62.17
55550;BME280;41397;49.972;18.944;2024-03-08T14:56:28;102207.65;;;6.69;62.91
55550;BME280;41397;49.972;18.944;2024-03-08T14:59:29;102189.49;;;6.70;62.91
55550;BME280;41397;49.972;18.944;2024-03-08T15:02:31;102204.65;;;6.75;63.51
55550;BME280;41397;49.972;18.944;2024-03-08T15:05:43;102191.47;;;6.86;64.03
55550;BME280;41397;49.972;18.944;2024-03-08T15:08:49;102194.87;;;6.92;64.28
55550;BME280;41397;49.972;18.944;2024-03-08T15:11:52;102190.02;;;6.98;64.47
55550;BME280;41397;49.972;18.944;2024-03-08T15:14:57;102188.69;;;6.88;64.64
55550;BME280;41397;49.972;18.944;2024-03-08T15:17:59;102180.54;;;6.88;65.31
55550;BME280;41397;49.972;18.944;2024-03-08T15:21:00;102180.94;;;6.99;65.08
55550;BME280;41397;49.972;18.944;2024-03-08T15:24:02;102177.67;;;6.91;65.22
55550;BME280;41397;49.972;18.944;2024-03-08T15:27:15;102183.59;;;6.80;65.19
55550;BME280;41397;49.972;18.944;2024-03-08T15:30:17;102180.37;;;6.71;64.73
55550;BME280;41397;49.972;18.944;2024-03-08T15:33:23;102175.75;;;6.73;64.82
55550;BME280;41397;49.972;18.944;2024-03-08T15:36:29;102187.59;;;6.72;64.82
55550;BME280;41397;49.972;18.944;2024-03-08T15:39:34;102172.84;;;6.77;64.63
55550;BME280;41397;49.972;18.944;2024-03-08T15:42:39;102175.95;;;6.68;65.03
55550;BME280;41397;49.972;18.944;2024-03-08T15:45:41;102184.55;;;6.57;65.54
55550;BME280;41397;49.972;18.944;2024-03-08T15:48:42;102171.66;;;6.62;66.02
55550;BME280;41397;49.972;18.944;2024-03-08T15:51:46;102172.07;;;6.53;65.84
55550;BME280;41397;49.972;18.944;2024-03-08T15:54:47;102175.67;;;6.54;66.10
55550;BME280;41397;49.972;18.944;2024-03-08T15:57:49;102173.77;;;6.56;65.78
55550;BME280;41397;49.972;18.944;2024-03-08T16:00:59;102180.41;;;6.49;65.29
55550;BME280;41397;49.972;18.944;2024-03-08T16:04:00;102168.84;;;6.43;65.31